Skip Navigation Links
NOAA logo - Click to go to the NOAA homepage
NOAA's National Weather Service
Alaska Aviation Weather Unit
  NWS logo - Click to go to the NWS homepage
Left Navbar Graphic     09 AKDT = 17 GMT

   
NOAA is celebrating 200 years of science, service, and stewardship. Visit the NOAA 200th celebration Web site to learn more.
USA.gov is the U.S. Government's official Web portal to all Federal, state and local government Web resources and services.
Facebook
NWS on Facebook

Important Change Regarding the AAWU Web Presence

 

Over the last several months, the AAWU has been working to navigate its webpages to a nationally supported server. Security, as well as other needs, have necessitated the change.  In the process, we have made an effort to enhance the functionality of our website, as well as some of our products. As of June 20, 2017, aawu.arh.noaa.gov will be discontinued. The new AAWU web address is weather.gov/aawu. It is now live and will run in-parallel with the old site until it is discontinued. Please send any feedback or questions regarding the new webpages to nws.ar.aawu.webauthors@noaa.gov.  Thank you for your patience during this time of transition.
AAWU Home :: Display TAF Add Bookmark
TAF PAPG 291120Z 2912/3012 VRB04KT P6SM SCT020 BKN090
     FM291500 07004KT P6SM BKN020 OVC180
     FM292100 08006KT P6SM BKN040 BKN150
     FM300500 VRB04KT P6SM BKN025 BKN160
      AMD LTD TO CLD VIS AND WIND 2912/2915=

METAR PAPG 291156Z AUTO VRB04KT 10SM CLR 12/06 RMK AO2 SLPNO T01220056 10194 20122 $= METAR PAPG 291256Z AUTO 07005KT 10SM CLR 10/06 RMK AO2 SLPNO T01000056 $= METAR PAPG 291356Z AUTO 26009KT 10SM CLR 11/06 RMK AO2 SLPNO T01060061 $= METAR PAPG 291456Z 26009KT 10SM FEW026 11/07 A3005 RMK AO2 SLP180 HYR CLDS SCT ACSL T01110067 $= METAR PAPG 291656Z 24005KT 10SM SCT026 13/07 A3005 RMK AO2 SLP181 T01330072 $=
 Alaska TAF Map

NOAA's National Weather Service
Alaska Aviation Weather Unit
6930 Sand Lake Road
Anchorage, AK 99502-1845
Disclaimer
Credits
Glossary
Privacy Policy
About Us
Career Opportunities
Contact AAWU Internet Services Site last modified: April, 17th 2012